Warning: Javascript must be enabled to use all the features on this page!


Page Loading - Please Wait...

Click to hideNews Bulletins

Peak Streamflow for the Nation

USGS 14152500 COAST FORK WILLAMETTE AT LONDON, OR

Lane County, Oregon
Hydrologic Unit Code 17090002
Latitude  43°38'30", Longitude 123°05'05" NAD27
Drainage area 72.1  square miles
Gage datum 852.58 feet above NGVD29
Output formats
Table
Graph
Tab-separated file
peakfq (watstore) format
Reselect output format
Water
Year
Date Gage
Height
(feet)
Stream-
flow
(cfs)
1936 1936-01-13 7.45 3,350
1937 1937-04-14 7.98 3,820
1938 1938-03-18 8.00 3,820
1939 1939-03-12 6.67 2,780
1940 1940-02-28 5.56 1,850
1941 1940-12-26 5.65 2,040
1942 1941-11-15 10.37 6,070
1943 1942-12-30 11.11 6,650
1944 1943-11-04 6.04 2,210
1945 1945-02-13 5.52 1,750
1946 1945-12-28 13.25 8,800
1947 1946-11-26 6.81 2,610
1948 1948-01-06 8.69 4,120
1949 1948-12-12 9.52 4,890
1950 1950-01-23 7.07 2,790
1951 1950-10-28 11.43 6,790
1952 1951-11-29 6.90 2,760
1953 1953-01-18 10.78 6,110
1954 1953-11-23 11.28 6,630
1955 1954-12-30 5.97 2,110
1956 1955-12-22 10.88 6,210
1957 1956-12-11 7.18 2,960
1958 1957-12-20 9.93 5,280
1959 1959-02-14 6.35 2,480
1960 1960-02-09 5.93 2,190
1961 1961-02-10 11.62 6,990
1962 1961-11-23 11.44 6,800
1963 1962-12-02 6.92 2,870
1964 1964-01-19 11.68 6,600
1965 1964-12-22 13.37 12,500
1966 1966-01-03 9.58 5,980
1967 1967-01-28 5.41 1,940
1968 1968-02-23 4.52 1,360
1969 1969-01-13 5.87 2,240
1970 1969-12-21 8.13 4,300
1971 1971-01-17 8.19 4,310
1972 1972-01-21 9.52 5,900
1973 1972-12-22 4.09 1,080
1974 1974-01-15 8.15 4,260
1975 1975-03-18 5.61 2,050
1976 1976-01-08 10.65 6,580
1977 1977-03-09 3.40 634
1978 1977-11-25 6.47 2,600
1979 1979-02-07 7.04 2,980
1980 1980-01-13 6.01 2,300
1981 1980-12-03 8.28 3,890
1982 1981-12-06 11.70 8,490
1983 1983-02-18 8.89 4,460
1984 1984-02-13 8.47 4,050
1985 1984-11-30 9.16 4,740
1986 1986-02-22 8.46 4,030
1987 1986-11-28 6.20 2,380
2012 2012-01-19 7.82 3,510
2013 2012-11-20 6.94 2,890
2014 2014-02-14 5.96 2,260
2016 2015-12-13 7.08 2,990
2017 2016-12-15 6.33 2,470
2020 2020-01-11 4.60 1,200